Huvudsida
METAR-TAF:

METAR-TAF

Flygplatser :

Tiree Airport

Tiree, Skottland

latitud: 56-30N, longitud: 006-53W, höjd: 12 m

Aktuellt väderrapport

Denna rapport gjordes för 6 timmar och 0 minuter sedan, klockan 18:50 UTC
Vind 14 kt från sydost
Temperatur 13°C
Fuktighet 67%
Tryck 1001 hPa
Sikt 10 km eller mer
Inga moln under 1 500 m eller inga cumulonimbus

METAR: EGPU 221850Z 14014KT CAVOK 13/07 Q1001

Tid: 01:50 (00:50 UTC)

Väderprognos

Denna rapport gjordes för 10 timmar och 49 minuter sedan, klockan 14:01 UTC
Prognos gäller från 22 kl. 15 UTC till 22 kl. 18 UTC
Vind 18 kt från sydost
Sikt 10 km eller mer
Inga moln under 1 500 m eller inga cumulonimbus

TAF: EGPU 221401Z 2215/2218 14018KT CAVOK

Aktuella väderrapporter och prognoser från 4000 flygplatser (METAR- och TAF-rapporter).

De tillgängliga stationerna syns som gula och röda prickar på kartan.

För musen över prickarna för att se namnen på stationerna.

Klicka sedan för att få väderrapporter och prognoser.

För att ändra kartan: Klicka på de gröna knapparna med ett svart kors på för att zooma in; den gröna knappen med ett streck på för att zooma ut; eller på de gröna pilarna för angränsande kartor.


METAR-TAF: